sensor_id;sensor_type;location;lat;lon;timestamp;P1;durP1;ratioP1;P2;durP2;ratioP2
36411;SDS011;22445;52.100;5.176;2024-03-08T00:01:12;39.53;;;19.95;;
36411;SDS011;22445;52.100;5.176;2024-03-08T00:03:38;45.03;;;21.17;;
36411;SDS011;22445;52.100;5.176;2024-03-08T00:06:05;39.50;;;19.17;;
36411;SDS011;22445;52.100;5.176;2024-03-08T00:08:31;39.38;;;17.98;;
36411;SDS011;22445;52.100;5.176;2024-03-08T00:10:57;39.65;;;17.98;;
36411;SDS011;22445;52.100;5.176;2024-03-08T00:13:22;37.42;;;18.63;;
36411;SDS011;22445;52.100;5.176;2024-03-08T00:15:50;37.33;;;19.88;;
36411;SDS011;22445;52.100;5.176;2024-03-08T00:18:16;35.28;;;17.83;;
36411;SDS011;22445;52.100;5.176;2024-03-08T00:20:42;40.13;;;20.30;;
36411;SDS011;22445;52.100;5.176;2024-03-08T00:23:09;37.85;;;19.15;;
36411;SDS011;22445;52.100;5.176;2024-03-08T00:25:36;44.95;;;20.08;;
36411;SDS011;22445;52.100;5.176;2024-03-08T00:28:02;36.50;;;18.58;;
36411;SDS011;22445;52.100;5.176;2024-03-08T00:30:30;37.90;;;19.65;;
36411;SDS011;22445;52.100;5.176;2024-03-08T00:32:56;40.38;;;19.60;;
36411;SDS011;22445;52.100;5.176;2024-03-08T00:35:21;38.53;;;18.35;;
36411;SDS011;22445;52.100;5.176;2024-03-08T00:37:48;35.35;;;19.10;;
36411;SDS011;22445;52.100;5.176;2024-03-08T00:40:13;38.78;;;18.98;;
36411;SDS011;22445;52.100;5.176;2024-03-08T00:42:39;38.92;;;18.88;;
36411;SDS011;22445;52.100;5.176;2024-03-08T00:45:06;39.22;;;20.50;;
36411;SDS011;22445;52.100;5.176;2024-03-08T00:47:33;42.65;;;20.55;;
36411;SDS011;22445;52.100;5.176;2024-03-08T00:49:58;37.85;;;19.92;;
36411;SDS011;22445;52.100;5.176;2024-03-08T00:52:24;43.17;;;20.40;;
36411;SDS011;22445;52.100;5.176;2024-03-08T00:54:50;39.55;;;19.35;;
36411;SDS011;22445;52.100;5.176;2024-03-08T00:57:15;33.28;;;17.83;;
36411;SDS011;22445;52.100;5.176;2024-03-08T00:59:41;35.50;;;19.60;;
36411;SDS011;22445;52.100;5.176;2024-03-08T01:02:07;39.63;;;19.27;;
36411;SDS011;22445;52.100;5.176;2024-03-08T01:04:34;33.33;;;18.77;;
36411;SDS011;22445;52.100;5.176;2024-03-08T01:07:00;35.25;;;18.60;;
36411;SDS011;22445;52.100;5.176;2024-03-08T01:09:26;33.22;;;18.45;;
36411;SDS011;22445;52.100;5.176;2024-03-08T01:11:55;37.03;;;18.15;;
36411;SDS011;22445;52.100;5.176;2024-03-08T01:14:21;31.77;;;17.48;;
36411;SDS011;22445;52.100;5.176;2024-03-08T01:16:47;37.70;;;19.40;;
36411;SDS011;22445;52.100;5.176;2024-03-08T01:19:14;42.65;;;18.83;;
36411;SDS011;22445;52.100;5.176;2024-03-08T01:21:41;40.58;;;20.10;;
36411;SDS011;22445;52.100;5.176;2024-03-08T01:24:07;37.78;;;20.13;;
36411;SDS011;22445;52.100;5.176;2024-03-08T01:26:33;36.90;;;18.55;;
36411;SDS011;22445;52.100;5.176;2024-03-08T01:29:02;41.97;;;19.77;;
36411;SDS011;22445;52.100;5.176;2024-03-08T01:31:29;38.70;;;20.58;;
36411;SDS011;22445;52.100;5.176;2024-03-08T01:33:55;33.35;;;17.67;;
36411;SDS011;22445;52.100;5.176;2024-03-08T01:36:21;31.85;;;17.80;;
36411;SDS011;22445;52.100;5.176;2024-03-08T01:38:47;35.75;;;18.35;;
36411;SDS011;22445;52.100;5.176;2024-03-08T01:41:13;36.90;;;18.20;;
36411;SDS011;22445;52.100;5.176;2024-03-08T01:43:39;36.28;;;20.17;;
36411;SDS011;22445;52.100;5.176;2024-03-08T01:46:05;37.60;;;19.90;;
36411;SDS011;22445;52.100;5.176;2024-03-08T01:48:31;39.63;;;18.63;;
36411;SDS011;22445;52.100;5.176;2024-03-08T01:50:57;36.95;;;19.30;;
36411;SDS011;22445;52.100;5.176;2024-03-08T01:53:29;35.90;;;18.13;;
36411;SDS011;22445;52.100;5.176;2024-03-08T01:55:57;40.53;;;20.10;;
36411;SDS011;22445;52.100;5.176;2024-03-08T01:58:23;36.60;;;18.95;;
36411;SDS011;22445;52.100;5.176;2024-03-08T02:00:50;33.88;;;19.48;;
36411;SDS011;22445;52.100;5.176;2024-03-08T02:03:16;36.15;;;18.40;;
36411;SDS011;22445;52.100;5.176;2024-03-08T02:05:41;38.95;;;18.83;;
36411;SDS011;22445;52.100;5.176;2024-03-08T02:08:08;36.90;;;19.67;;
36411;SDS011;22445;52.100;5.176;2024-03-08T02:10:43;39.72;;;20.33;;
36411;SDS011;22445;52.100;5.176;2024-03-08T02:13:09;33.58;;;17.85;;
36411;SDS011;22445;52.100;5.176;2024-03-08T02:18:21;34.67;;;18.77;;
36411;SDS011;22445;52.100;5.176;2024-03-08T02:20:48;40.08;;;20.42;;
36411;SDS011;22445;52.100;5.176;2024-03-08T02:23:15;39.72;;;20.25;;
36411;SDS011;22445;52.100;5.176;2024-03-08T02:25:41;37.28;;;20.15;;
36411;SDS011;22445;52.100;5.176;2024-03-08T02:28:10;37.47;;;19.83;;
36411;SDS011;22445;52.100;5.176;2024-03-08T02:30:37;37.95;;;19.42;;
36411;SDS011;22445;52.100;5.176;2024-03-08T02:33:03;35.53;;;19.05;;
36411;SDS011;22445;52.100;5.176;2024-03-08T02:35:30;39.17;;;20.00;;
36411;SDS011;22445;52.100;5.176;2024-03-08T02:37:55;33.97;;;20.08;;
36411;SDS011;22445;52.100;5.176;2024-03-08T02:40:21;46.60;;;20.98;;
36411;SDS011;22445;52.100;5.176;2024-03-08T02:42:47;38.40;;;21.33;;
36411;SDS011;22445;52.100;5.176;2024-03-08T02:45:13;37.58;;;20.38;;
36411;SDS011;22445;52.100;5.176;2024-03-08T02:47:39;37.15;;;20.35;;
36411;SDS011;22445;52.100;5.176;2024-03-08T02:50:05;40.58;;;22.50;;
36411;SDS011;22445;52.100;5.176;2024-03-08T02:52:35;41.92;;;21.48;;
36411;SDS011;22445;52.100;5.176;2024-03-08T02:55:01;35.97;;;19.92;;
36411;SDS011;22445;52.100;5.176;2024-03-08T02:57:27;36.85;;;18.75;;
36411;SDS011;22445;52.100;5.176;2024-03-08T02:59:53;30.92;;;18.35;;
36411;SDS011;22445;52.100;5.176;2024-03-08T03:02:19;37.53;;;19.15;;
36411;SDS011;22445;52.100;5.176;2024-03-08T03:04:45;33.42;;;18.60;;
36411;SDS011;22445;52.100;5.176;2024-03-08T03:07:10;36.15;;;20.55;;
36411;SDS011;22445;52.100;5.176;2024-03-08T03:09:36;37.97;;;19.17;;
36411;SDS011;22445;52.100;5.176;2024-03-08T03:12:02;49.65;;;21.40;;
36411;SDS011;22445;52.100;5.176;2024-03-08T03:14:28;38.05;;;20.15;;
36411;SDS011;22445;52.100;5.176;2024-03-08T03:16:54;39.88;;;20.38;;
36411;SDS011;22445;52.100;5.176;2024-03-08T03:19:20;40.35;;;18.98;;
36411;SDS011;22445;52.100;5.176;2024-03-08T03:21:46;37.53;;;20.33;;
36411;SDS011;22445;52.100;5.176;2024-03-08T03:24:12;39.97;;;20.75;;
36411;SDS011;22445;52.100;5.176;2024-03-08T03:26:41;39.00;;;20.42;;
36411;SDS011;22445;52.100;5.176;2024-03-08T03:29:08;38.92;;;20.42;;
36411;SDS011;22445;52.100;5.176;2024-03-08T03:31:36;37.42;;;19.63;;
36411;SDS011;22445;52.100;5.176;2024-03-08T03:34:01;44.08;;;22.48;;
36411;SDS011;22445;52.100;5.176;2024-03-08T03:36:29;39.58;;;20.23;;
36411;SDS011;22445;52.100;5.176;2024-03-08T03:38:55;39.75;;;20.92;;
36411;SDS011;22445;52.100;5.176;2024-03-08T03:41:39;35.15;;;20.80;;
36411;SDS011;22445;52.100;5.176;2024-03-08T03:44:05;40.00;;;21.60;;
36411;SDS011;22445;52.100;5.176;2024-03-08T03:46:34;42.63;;;20.58;;
36411;SDS011;22445;52.100;5.176;2024-03-08T03:49:00;40.38;;;19.88;;
36411;SDS011;22445;52.100;5.176;2024-03-08T03:51:26;38.30;;;20.25;;
36411;SDS011;22445;52.100;5.176;2024-03-08T03:53:52;39.33;;;20.50;;
36411;SDS011;22445;52.100;5.176;2024-03-08T03:56:18;40.67;;;19.88;;
36411;SDS011;22445;52.100;5.176;2024-03-08T03:58:44;38.60;;;20.90;;
36411;SDS011;22445;52.100;5.176;2024-03-08T04:01:10;41.53;;;22.42;;
36411;SDS011;22445;52.100;5.176;2024-03-08T04:03:35;43.60;;;21.00;;
36411;SDS011;22445;52.100;5.176;2024-03-08T04:06:03;33.63;;;20.30;;
36411;SDS011;22445;52.100;5.176;2024-03-08T04:08:29;39.45;;;20.10;;
36411;SDS011;22445;52.100;5.176;2024-03-08T04:10:56;41.28;;;23.15;;
36411;SDS011;22445;52.100;5.176;2024-03-08T04:13:23;37.22;;;21.80;;
36411;SDS011;22445;52.100;5.176;2024-03-08T04:15:48;40.33;;;21.02;;
36411;SDS011;22445;52.100;5.176;2024-03-08T04:18:14;39.88;;;21.00;;
36411;SDS011;22445;52.100;5.176;2024-03-08T04:20:40;39.17;;;20.23;;
36411;SDS011;22445;52.100;5.176;2024-03-08T04:23:06;42.97;;;22.42;;
36411;SDS011;22445;52.100;5.176;2024-03-08T04:25:31;40.00;;;20.48;;
36411;SDS011;22445;52.100;5.176;2024-03-08T04:27:57;38.65;;;22.23;;
36411;SDS011;22445;52.100;5.176;2024-03-08T04:30:23;41.67;;;21.73;;
36411;SDS011;22445;52.100;5.176;2024-03-08T04:32:49;35.40;;;20.08;;
36411;SDS011;22445;52.100;5.176;2024-03-08T04:35:15;36.25;;;21.50;;
36411;SDS011;22445;52.100;5.176;2024-03-08T04:37:41;34.45;;;20.48;;
36411;SDS011;22445;52.100;5.176;2024-03-08T04:40:06;41.42;;;20.92;;
36411;SDS011;22445;52.100;5.176;2024-03-08T04:42:32;39.13;;;22.52;;
36411;SDS011;22445;52.100;5.176;2024-03-08T04:44:59;34.72;;;19.45;;
36411;SDS011;22445;52.100;5.176;2024-03-08T04:47:24;37.75;;;21.85;;
36411;SDS011;22445;52.100;5.176;2024-03-08T04:49:50;44.08;;;21.75;;
36411;SDS011;22445;52.100;5.176;2024-03-08T04:52:16;37.80;;;21.60;;
36411;SDS011;22445;52.100;5.176;2024-03-08T04:54:42;36.70;;;21.45;;
36411;SDS011;22445;52.100;5.176;2024-03-08T04:57:09;35.67;;;21.83;;
36411;SDS011;22445;52.100;5.176;2024-03-08T04:59:36;39.45;;;22.95;;
36411;SDS011;22445;52.100;5.176;2024-03-08T05:02:02;36.53;;;21.30;;
36411;SDS011;22445;52.100;5.176;2024-03-08T05:04:28;36.28;;;20.67;;
36411;SDS011;22445;52.100;5.176;2024-03-08T05:06:54;42.50;;;21.45;;
36411;SDS011;22445;52.100;5.176;2024-03-08T05:09:20;35.28;;;20.67;;
36411;SDS011;22445;52.100;5.176;2024-03-08T05:11:46;37.28;;;21.00;;
36411;SDS011;22445;52.100;5.176;2024-03-08T05:14:13;35.85;;;19.63;;
36411;SDS011;22445;52.100;5.176;2024-03-08T05:16:44;40.90;;;21.48;;
36411;SDS011;22445;52.100;5.176;2024-03-08T05:19:19;37.75;;;21.95;;
36411;SDS011;22445;52.100;5.176;2024-03-08T05:21:45;35.78;;;20.67;;
36411;SDS011;22445;52.100;5.176;2024-03-08T05:24:12;34.20;;;21.05;;
36411;SDS011;22445;52.100;5.176;2024-03-08T05:26:38;35.92;;;20.65;;
36411;SDS011;22445;52.100;5.176;2024-03-08T05:29:04;39.65;;;21.05;;
36411;SDS011;22445;52.100;5.176;2024-03-08T05:31:31;40.38;;;20.90;;
36411;SDS011;22445;52.100;5.176;2024-03-08T05:34:20;34.38;;;19.52;;
36411;SDS011;22445;52.100;5.176;2024-03-08T05:36:47;36.38;;;19.83;;
36411;SDS011;22445;52.100;5.176;2024-03-08T05:39:14;35.15;;;20.75;;
36411;SDS011;22445;52.100;5.176;2024-03-08T05:41:41;34.45;;;20.67;;
36411;SDS011;22445;52.100;5.176;2024-03-08T05:44:07;39.30;;;22.58;;
36411;SDS011;22445;52.100;5.176;2024-03-08T05:46:33;33.72;;;19.67;;
36411;SDS011;22445;52.100;5.176;2024-03-08T05:49:01;32.50;;;19.25;;
36411;SDS011;22445;52.100;5.176;2024-03-08T05:51:31;34.63;;;19.50;;
36411;SDS011;22445;52.100;5.176;2024-03-08T05:54:03;43.65;;;20.85;;
36411;SDS011;22445;52.100;5.176;2024-03-08T05:56:33;32.47;;;19.30;;
36411;SDS011;22445;52.100;5.176;2024-03-08T05:58:59;35.80;;;20.10;;
36411;SDS011;22445;52.100;5.176;2024-03-08T06:01:25;32.95;;;19.83;;
36411;SDS011;22445;52.100;5.176;2024-03-08T06:03:52;35.70;;;20.63;;
36411;SDS011;22445;52.100;5.176;2024-03-08T06:06:24;32.63;;;19.08;;
36411;SDS011;22445;52.100;5.176;2024-03-08T06:08:50;39.53;;;21.40;;
36411;SDS011;22445;52.100;5.176;2024-03-08T06:11:19;36.35;;;21.35;;
36411;SDS011;22445;52.100;5.176;2024-03-08T06:13:48;33.75;;;19.55;;
36411;SDS011;22445;52.100;5.176;2024-03-08T06:16:15;34.20;;;20.70;;
36411;SDS011;22445;52.100;5.176;2024-03-08T06:18:41;34.70;;;20.73;;
36411;SDS011;22445;52.100;5.176;2024-03-08T06:21:07;35.10;;;20.10;;
36411;SDS011;22445;52.100;5.176;2024-03-08T06:23:37;31.85;;;18.63;;
36411;SDS011;22445;52.100;5.176;2024-03-08T06:26:06;35.78;;;19.70;;
36411;SDS011;22445;52.100;5.176;2024-03-08T06:28:32;34.78;;;21.27;;
36411;SDS011;22445;52.100;5.176;2024-03-08T06:30:59;40.20;;;20.92;;
36411;SDS011;22445;52.100;5.176;2024-03-08T06:33:25;35.03;;;20.33;;
36411;SDS011;22445;52.100;5.176;2024-03-08T06:35:54;36.13;;;19.15;;
36411;SDS011;22445;52.100;5.176;2024-03-08T06:38:26;30.85;;;19.55;;
36411;SDS011;22445;52.100;5.176;2024-03-08T06:40:52;38.10;;;21.38;;
36411;SDS011;22445;52.100;5.176;2024-03-08T06:43:19;32.90;;;20.55;;
36411;SDS011;22445;52.100;5.176;2024-03-08T06:45:45;31.27;;;19.98;;
36411;SDS011;22445;52.100;5.176;2024-03-08T06:48:16;36.42;;;20.05;;
36411;SDS011;22445;52.100;5.176;2024-03-08T06:50:43;36.03;;;19.88;;
36411;SDS011;22445;52.100;5.176;2024-03-08T06:53:10;37.17;;;20.35;;
36411;SDS011;22445;52.100;5.176;2024-03-08T06:55:36;30.70;;;19.90;;
36411;SDS011;22445;52.100;5.176;2024-03-08T06:58:02;32.67;;;20.15;;
36411;SDS011;22445;52.100;5.176;2024-03-08T07:00:27;34.08;;;20.60;;
36411;SDS011;22445;52.100;5.176;2024-03-08T07:02:56;33.63;;;19.30;;
36411;SDS011;22445;52.100;5.176;2024-03-08T07:05:29;34.35;;;20.70;;
36411;SDS011;22445;52.100;5.176;2024-03-08T07:07:55;32.10;;;19.80;;
36411;SDS011;22445;52.100;5.176;2024-03-08T07:10:23;35.20;;;21.83;;
36411;SDS011;22445;52.100;5.176;2024-03-08T07:12:53;32.40;;;19.52;;
36411;SDS011;22445;52.100;5.176;2024-03-08T07:15:19;37.08;;;20.52;;
36411;SDS011;22445;52.100;5.176;2024-03-08T07:17:45;31.58;;;19.17;;
36411;SDS011;22445;52.100;5.176;2024-03-08T07:20:12;31.58;;;19.75;;
36411;SDS011;22445;52.100;5.176;2024-03-08T07:22:39;25.88;;;18.20;;
36411;SDS011;22445;52.100;5.176;2024-03-08T07:25:05;33.65;;;19.10;;
36411;SDS011;22445;52.100;5.176;2024-03-08T07:27:50;32.67;;;19.00;;
36411;SDS011;22445;52.100;5.176;2024-03-08T07:30:17;34.45;;;19.63;;
36411;SDS011;22445;52.100;5.176;2024-03-08T07:33:01;28.40;;;18.15;;
36411;SDS011;22445;52.100;5.176;2024-03-08T07:35:30;30.00;;;18.17;;
36411;SDS011;22445;52.100;5.176;2024-03-08T07:37:56;30.98;;;18.88;;
36411;SDS011;22445;52.100;5.176;2024-03-08T07:40:22;29.02;;;17.92;;
36411;SDS011;22445;52.100;5.176;2024-03-08T07:42:51;28.08;;;17.13;;
36411;SDS011;22445;52.100;5.176;2024-03-08T07:45:17;26.88;;;17.73;;
36411;SDS011;22445;52.100;5.176;2024-03-08T07:47:43;25.80;;;16.45;;
36411;SDS011;22445;52.100;5.176;2024-03-08T07:50:09;24.48;;;16.85;;
36411;SDS011;22445;52.100;5.176;2024-03-08T07:52:35;29.10;;;18.27;;
36411;SDS011;22445;52.100;5.176;2024-03-08T07:55:04;25.27;;;16.90;;
36411;SDS011;22445;52.100;5.176;2024-03-08T07:57:30;27.67;;;17.13;;
36411;SDS011;22445;52.100;5.176;2024-03-08T07:59:57;22.80;;;15.88;;
36411;SDS011;22445;52.100;5.176;2024-03-08T08:02:23;21.95;;;15.05;;
36411;SDS011;22445;52.100;5.176;2024-03-08T08:04:48;23.95;;;16.20;;
36411;SDS011;22445;52.100;5.176;2024-03-08T08:07:14;23.70;;;15.52;;
36411;SDS011;22445;52.100;5.176;2024-03-08T08:09:40;23.65;;;15.88;;
36411;SDS011;22445;52.100;5.176;2024-03-08T08:12:10;23.60;;;16.85;;
36411;SDS011;22445;52.100;5.176;2024-03-08T08:14:37;23.27;;;16.02;;
36411;SDS011;22445;52.100;5.176;2024-03-08T08:17:04;21.98;;;16.38;;
36411;SDS011;22445;52.100;5.176;2024-03-08T08:19:30;22.75;;;15.93;;
36411;SDS011;22445;52.100;5.176;2024-03-08T08:21:57;21.25;;;16.17;;
36411;SDS011;22445;52.100;5.176;2024-03-08T08:24:23;21.77;;;15.93;;
36411;SDS011;22445;52.100;5.176;2024-03-08T08:26:49;20.88;;;16.30;;
36411;SDS011;22445;52.100;5.176;2024-03-08T08:29:14;20.85;;;16.42;;
36411;SDS011;22445;52.100;5.176;2024-03-08T08:31:41;23.55;;;16.15;;
36411;SDS011;22445;52.100;5.176;2024-03-08T08:34:08;22.73;;;15.73;;
36411;SDS011;22445;52.100;5.176;2024-03-08T08:36:37;21.38;;;15.32;;
36411;SDS011;22445;52.100;5.176;2024-03-08T08:39:04;22.80;;;17.20;;
36411;SDS011;22445;52.100;5.176;2024-03-08T08:41:36;19.95;;;15.32;;
36411;SDS011;22445;52.100;5.176;2024-03-08T08:44:02;20.63;;;16.33;;
36411;SDS011;22445;52.100;5.176;2024-03-08T08:46:27;21.45;;;15.90;;
36411;SDS011;22445;52.100;5.176;2024-03-08T08:48:54;24.77;;;15.45;;
36411;SDS011;22445;52.100;5.176;2024-03-08T08:51:19;19.85;;;15.15;;
36411;SDS011;22445;52.100;5.176;2024-03-08T08:53:45;22.98;;;14.40;;
36411;SDS011;22445;52.100;5.176;2024-03-08T08:56:13;20.30;;;15.63;;
36411;SDS011;22445;52.100;5.176;2024-03-08T08:58:39;20.45;;;16.10;;
36411;SDS011;22445;52.100;5.176;2024-03-08T09:01:07;24.20;;;15.80;;
36411;SDS011;22445;52.100;5.176;2024-03-08T09:03:35;18.35;;;15.20;;
36411;SDS011;22445;52.100;5.176;2024-03-08T09:06:03;21.90;;;14.93;;
36411;SDS011;22445;52.100;5.176;2024-03-08T09:08:29;16.90;;;14.10;;
36411;SDS011;22445;52.100;5.176;2024-03-08T09:10:55;24.92;;;16.25;;
36411;SDS011;22445;52.100;5.176;2024-03-08T09:13:21;19.25;;;14.68;;
36411;SDS011;22445;52.100;5.176;2024-03-08T09:15:46;18.58;;;15.65;;
36411;SDS011;22445;52.100;5.176;2024-03-08T09:18:12;22.80;;;15.45;;
36411;SDS011;22445;52.100;5.176;2024-03-08T09:20:38;20.48;;;15.48;;
36411;SDS011;22445;52.100;5.176;2024-03-08T09:23:03;20.60;;;14.93;;
36411;SDS011;22445;52.100;5.176;2024-03-08T09:25:29;20.25;;;15.40;;
36411;SDS011;22445;52.100;5.176;2024-03-08T09:27:55;22.70;;;15.25;;
36411;SDS011;22445;52.100;5.176;2024-03-08T09:30:21;23.42;;;15.82;;
36411;SDS011;22445;52.100;5.176;2024-03-08T09:32:47;19.92;;;14.23;;
36411;SDS011;22445;52.100;5.176;2024-03-08T09:35:12;18.75;;;14.43;;
36411;SDS011;22445;52.100;5.176;2024-03-08T09:37:38;20.08;;;15.15;;
36411;SDS011;22445;52.100;5.176;2024-03-08T09:40:04;18.80;;;14.98;;
36411;SDS011;22445;52.100;5.176;2024-03-08T09:42:37;19.23;;;15.70;;
36411;SDS011;22445;52.100;5.176;2024-03-08T09:45:08;17.00;;;14.15;;
36411;SDS011;22445;52.100;5.176;2024-03-08T09:47:43;19.58;;;15.00;;
36411;SDS011;22445;52.100;5.176;2024-03-08T09:50:10;17.35;;;14.90;;
36411;SDS011;22445;52.100;5.176;2024-03-08T09:52:41;22.35;;;16.55;;
36411;SDS011;22445;52.100;5.176;2024-03-08T09:55:11;18.58;;;14.55;;
36411;SDS011;22445;52.100;5.176;2024-03-08T09:57:37;22.20;;;15.40;;
36411;SDS011;22445;52.100;5.176;2024-03-08T10:00:04;19.33;;;14.40;;
36411;SDS011;22445;52.100;5.176;2024-03-08T10:02:49;18.42;;;15.30;;
36411;SDS011;22445;52.100;5.176;2024-03-08T10:05:17;17.60;;;14.00;;
36411;SDS011;22445;52.100;5.176;2024-03-08T10:07:43;19.13;;;14.88;;
36411;SDS011;22445;52.100;5.176;2024-03-08T10:10:09;18.27;;;15.05;;
36411;SDS011;22445;52.100;5.176;2024-03-08T10:12:37;16.38;;;13.98;;
36411;SDS011;22445;52.100;5.176;2024-03-08T10:15:07;17.05;;;14.77;;
36411;SDS011;22445;52.100;5.176;2024-03-08T10:17:34;16.70;;;14.57;;
36411;SDS011;22445;52.100;5.176;2024-03-08T10:20:00;17.75;;;14.95;;
36411;SDS011;22445;52.100;5.176;2024-03-08T10:22:26;16.48;;;13.93;;
36411;SDS011;22445;52.100;5.176;2024-03-08T10:24:51;19.67;;;15.23;;
36411;SDS011;22445;52.100;5.176;2024-03-08T10:27:17;16.25;;;14.52;;
36411;SDS011;22445;52.100;5.176;2024-03-08T10:29:52;18.35;;;14.32;;
36411;SDS011;22445;52.100;5.176;2024-03-08T10:32:18;21.25;;;14.32;;
36411;SDS011;22445;52.100;5.176;2024-03-08T10:34:44;16.45;;;14.43;;
36411;SDS011;22445;52.100;5.176;2024-03-08T10:37:12;18.00;;;14.10;;
36411;SDS011;22445;52.100;5.176;2024-03-08T10:39:50;15.85;;;14.00;;
36411;SDS011;22445;52.100;5.176;2024-03-08T10:42:41;19.88;;;13.68;;
36411;SDS011;22445;52.100;5.176;2024-03-08T10:50:57;16.65;;;13.70;;
36411;SDS011;22445;52.100;5.176;2024-03-08T10:53:24;17.25;;;13.07;;
36411;SDS011;22445;52.100;5.176;2024-03-08T10:55:52;17.45;;;12.73;;
36411;SDS011;22445;52.100;5.176;2024-03-08T10:58:22;13.48;;;12.02;;
36411;SDS011;22445;52.100;5.176;2024-03-08T11:00:52;13.90;;;12.40;;
36411;SDS011;22445;52.100;5.176;2024-03-08T11:14:44;14.60;;;11.68;;
36411;SDS011;22445;52.100;5.176;2024-03-08T11:17:14;15.40;;;12.88;;
36411;SDS011;22445;52.100;5.176;2024-03-08T11:19:45;14.05;;;12.25;;
36411;SDS011;22445;52.100;5.176;2024-03-08T11:24:58;13.60;;;12.07;;
36411;SDS011;22445;52.100;5.176;2024-03-08T11:27:37;14.65;;;12.48;;
36411;SDS011;22445;52.100;5.176;2024-03-08T11:30:04;14.57;;;12.80;;
36411;SDS011;22445;52.100;5.176;2024-03-08T11:32:37;14.77;;;12.50;;
36411;SDS011;22445;52.100;5.176;2024-03-08T11:35:06;14.82;;;12.98;;
36411;SDS011;22445;52.100;5.176;2024-03-08T11:37:34;13.30;;;11.60;;
36411;SDS011;22445;52.100;5.176;2024-03-08T11:40:01;13.93;;;12.32;;
36411;SDS011;22445;52.100;5.176;2024-03-08T11:42:30;13.35;;;11.98;;
36411;SDS011;22445;52.100;5.176;2024-03-08T11:44:56;13.02;;;11.65;;
36411;SDS011;22445;52.100;5.176;2024-03-08T11:47:23;13.40;;;12.00;;
36411;SDS011;22445;52.100;5.176;2024-03-08T11:49:49;13.32;;;11.13;;
36411;SDS011;22445;52.100;5.176;2024-03-08T11:52:15;13.48;;;11.50;;
36411;SDS011;22445;52.100;5.176;2024-03-08T11:54:41;12.55;;;10.68;;
36411;SDS011;22445;52.100;5.176;2024-03-08T11:57:08;14.27;;;11.07;;
36411;SDS011;22445;52.100;5.176;2024-03-08T11:59:37;11.77;;;10.57;;
36411;SDS011;22445;52.100;5.176;2024-03-08T12:02:03;11.65;;;10.45;;
36411;SDS011;22445;52.100;5.176;2024-03-08T12:04:30;14.65;;;11.00;;
36411;SDS011;22445;52.100;5.176;2024-03-08T12:06:59;10.80;;;9.68;;
36411;SDS011;22445;52.100;5.176;2024-03-08T12:09:27;12.25;;;10.32;;
36411;SDS011;22445;52.100;5.176;2024-03-08T12:11:53;11.95;;;9.52;;
36411;SDS011;22445;52.100;5.176;2024-03-08T12:14:19;12.27;;;9.93;;
36411;SDS011;22445;52.100;5.176;2024-03-08T12:16:45;11.70;;;10.40;;
36411;SDS011;22445;52.100;5.176;2024-03-08T12:19:11;15.05;;;9.98;;
36411;SDS011;22445;52.100;5.176;2024-03-08T12:21:37;12.25;;;9.18;;
36411;SDS011;22445;52.100;5.176;2024-03-08T12:24:11;11.50;;;9.93;;
36411;SDS011;22445;52.100;5.176;2024-03-08T12:26:41;11.98;;;10.00;;
36411;SDS011;22445;52.100;5.176;2024-03-08T12:31:57;13.98;;;10.38;;
36411;SDS011;22445;52.100;5.176;2024-03-08T12:34:26;11.35;;;9.93;;
36411;SDS011;22445;52.100;5.176;2024-03-08T12:36:57;11.57;;;9.98;;
36411;SDS011;22445;52.100;5.176;2024-03-08T12:39:23;11.80;;;10.40;;
36411;SDS011;22445;52.100;5.176;2024-03-08T12:41:54;12.57;;;10.63;;
36411;SDS011;22445;52.100;5.176;2024-03-08T12:44:20;11.98;;;10.68;;
36411;SDS011;22445;52.100;5.176;2024-03-08T12:46:50;13.60;;;10.55;;
36411;SDS011;22445;52.100;5.176;2024-03-08T12:49:16;12.40;;;10.85;;
36411;SDS011;22445;52.100;5.176;2024-03-08T12:51:47;12.65;;;10.82;;
36411;SDS011;22445;52.100;5.176;2024-03-08T12:54:13;14.73;;;11.23;;
36411;SDS011;22445;52.100;5.176;2024-03-08T12:56:39;11.85;;;10.35;;
36411;SDS011;22445;52.100;5.176;2024-03-08T12:59:05;13.15;;;10.98;;
36411;SDS011;22445;52.100;5.176;2024-03-08T13:01:33;14.80;;;11.73;;
36411;SDS011;22445;52.100;5.176;2024-03-08T13:04:02;12.75;;;10.80;;
36411;SDS011;22445;52.100;5.176;2024-03-08T13:06:29;15.55;;;11.05;;
36411;SDS011;22445;52.100;5.176;2024-03-08T13:08:56;18.30;;;12.63;;
36411;SDS011;22445;52.100;5.176;2024-03-08T13:11:23;14.23;;;10.45;;
36411;SDS011;22445;52.100;5.176;2024-03-08T13:13:49;14.05;;;11.20;;
36411;SDS011;22445;52.100;5.176;2024-03-08T13:16:15;13.40;;;10.95;;
36411;SDS011;22445;52.100;5.176;2024-03-08T13:18:42;13.57;;;11.57;;
36411;SDS011;22445;52.100;5.176;2024-03-08T13:21:08;13.27;;;11.65;;
36411;SDS011;22445;52.100;5.176;2024-03-08T13:23:36;12.85;;;10.80;;
36411;SDS011;22445;52.100;5.176;2024-03-08T13:26:05;12.77;;;10.75;;
36411;SDS011;22445;52.100;5.176;2024-03-08T13:28:41;17.02;;;11.77;;
36411;SDS011;22445;52.100;5.176;2024-03-08T13:31:07;14.05;;;11.60;;
36411;SDS011;22445;52.100;5.176;2024-03-08T13:33:38;13.25;;;11.20;;
36411;SDS011;22445;52.100;5.176;2024-03-08T13:36:08;15.13;;;12.32;;
36411;SDS011;22445;52.100;5.176;2024-03-08T13:38:41;16.40;;;11.50;;
36411;SDS011;22445;52.100;5.176;2024-03-08T13:41:11;17.00;;;13.25;;
36411;SDS011;22445;52.100;5.176;2024-03-08T13:43:39;13.07;;;11.70;;
36411;SDS011;22445;52.100;5.176;2024-03-08T13:46:05;13.75;;;12.00;;
36411;SDS011;22445;52.100;5.176;2024-03-08T13:48:32;12.63;;;11.32;;
36411;SDS011;22445;52.100;5.176;2024-03-08T13:50:58;15.93;;;12.75;;
36411;SDS011;22445;52.100;5.176;2024-03-08T13:53:25;15.48;;;12.60;;
36411;SDS011;22445;52.100;5.176;2024-03-08T13:55:51;15.88;;;13.10;;
36411;SDS011;22445;52.100;5.176;2024-03-08T13:58:17;13.25;;;11.70;;
36411;SDS011;22445;52.100;5.176;2024-03-08T14:00:43;15.73;;;13.48;;
36411;SDS011;22445;52.100;5.176;2024-03-08T14:03:09;16.25;;;12.82;;
36411;SDS011;22445;52.100;5.176;2024-03-08T14:05:40;24.02;;;18.70;;
36411;SDS011;22445;52.100;5.176;2024-03-08T14:08:08;15.55;;;12.73;;
36411;SDS011;22445;52.100;5.176;2024-03-08T14:10:34;13.40;;;12.00;;
36411;SDS011;22445;52.100;5.176;2024-03-08T14:13:02;14.20;;;12.80;;
36411;SDS011;22445;52.100;5.176;2024-03-08T14:15:32;13.25;;;11.85;;
36411;SDS011;22445;52.100;5.176;2024-03-08T14:18:00;14.23;;;12.68;;
36411;SDS011;22445;52.100;5.176;2024-03-08T14:20:26;15.40;;;12.40;;
36411;SDS011;22445;52.100;5.176;2024-03-08T14:22:55;16.30;;;12.88;;
36411;SDS011;22445;52.100;5.176;2024-03-08T14:25:21;15.38;;;13.23;;
36411;SDS011;22445;52.100;5.176;2024-03-08T14:27:52;17.42;;;15.27;;
36411;SDS011;22445;52.100;5.176;2024-03-08T14:30:29;15.85;;;13.50;;
36411;SDS011;22445;52.100;5.176;2024-03-08T14:33:00;16.02;;;13.38;;
36411;SDS011;22445;52.100;5.176;2024-03-08T14:35:27;16.05;;;12.65;;
36411;SDS011;22445;52.100;5.176;2024-03-08T14:37:52;15.82;;;12.45;;
36411;SDS011;22445;52.100;5.176;2024-03-08T14:40:18;18.33;;;16.40;;
36411;SDS011;22445;52.100;5.176;2024-03-08T14:42:48;14.75;;;13.10;;
36411;SDS011;22445;52.100;5.176;2024-03-08T14:45:15;15.20;;;13.63;;
36411;SDS011;22445;52.100;5.176;2024-03-08T14:47:47;15.05;;;12.45;;